createdAt,value
2019-02-17T00:02:01.782Z,30.05
2019-02-17T00:04:28.338Z,30.23
2019-02-17T00:06:54.895Z,29.40
2019-02-17T00:09:21.435Z,27.30
2019-02-17T00:11:48.049Z,30.77
2019-02-17T00:14:14.568Z,32.75
2019-02-17T00:16:41.134Z,30.82
2019-02-17T00:19:07.701Z,28.70
2019-02-17T00:21:34.257Z,29.50
2019-02-17T00:24:00.811Z,32.17
2019-02-17T00:26:27.637Z,29.63
2019-02-17T00:28:59.568Z,29.90
2019-02-17T00:31:22.663Z,38.00
2019-02-17T00:33:49.200Z,34.67
2019-02-17T00:36:15.768Z,32.78
2019-02-17T00:38:42.316Z,34.00
2019-02-17T00:41:08.885Z,36.80
2019-02-17T00:43:35.425Z,38.23
2019-02-17T00:46:01.980Z,34.08
2019-02-17T00:48:36.141Z,31.62
2019-02-17T00:51:05.146Z,32.70
2019-02-17T00:53:31.693Z,33.98
2019-02-17T00:55:58.245Z,36.63
2019-02-17T00:58:24.802Z,39.33
2019-02-17T01:00:51.388Z,42.48
2019-02-17T01:03:17.939Z,34.43
2019-02-17T01:05:44.480Z,34.80
2019-02-17T01:08:11.066Z,33.90
2019-02-17T01:10:37.619Z,35.03
2019-02-17T01:13:04.266Z,35.00
2019-02-17T01:15:30.812Z,41.10
2019-02-17T01:17:57.422Z,37.20
2019-02-17T01:20:23.971Z,35.78
2019-02-17T01:22:50.529Z,35.28
2019-02-17T01:25:17.463Z,36.85
2019-02-17T01:27:44.030Z,35.80
2019-02-17T01:30:12.339Z,38.67
2019-02-17T01:32:38.902Z,40.55
2019-02-17T01:35:05.444Z,40.90
2019-02-17T01:37:32.004Z,37.58
2019-02-17T01:39:58.575Z,37.20
2019-02-17T01:42:25.113Z,40.65
2019-02-17T01:44:51.672Z,36.75
2019-02-17T01:47:18.221Z,36.85
2019-02-17T01:49:44.773Z,39.25
2019-02-17T01:52:11.373Z,41.20
2019-02-17T01:54:37.908Z,34.43
2019-02-17T01:57:04.477Z,41.45
2019-02-17T01:59:31.110Z,43.55
2019-02-17T02:01:57.681Z,46.18
2019-02-17T02:04:24.249Z,40.75
2019-02-17T02:06:50.884Z,39.88
2019-02-17T02:09:17.450Z,46.25
2019-02-17T02:11:43.988Z,38.90
2019-02-17T02:14:10.551Z,44.93
2019-02-17T02:16:37.099Z,47.43
2019-02-17T02:19:03.681Z,43.02
2019-02-17T02:21:30.249Z,41.80
2019-02-17T02:23:56.820Z,47.45
2019-02-17T02:26:23.364Z,42.33
2019-02-17T02:28:49.949Z,42.20
2019-02-17T02:31:16.508Z,45.45
2019-02-17T02:33:43.071Z,45.10
2019-02-17T02:36:09.612Z,38.58
2019-02-17T02:38:36.194Z,39.25
2019-02-17T02:41:02.759Z,62.80
2019-02-17T02:43:29.436Z,55.65
2019-02-17T02:45:58.204Z,41.92
2019-02-17T02:48:24.764Z,46.25
2019-02-17T02:50:53.079Z,53.80
2019-02-17T02:53:19.765Z,53.92
2019-02-17T02:55:46.459Z,44.30
2019-02-17T02:58:13.037Z,42.03
2019-02-17T03:00:40.411Z,43.17
2019-02-17T03:03:06.966Z,42.83
2019-02-17T03:05:35.424Z,58.25
2019-02-17T03:08:01.992Z,54.03
2019-02-17T03:10:28.549Z,58.48
2019-02-17T03:12:55.125Z,54.95
2019-02-17T03:15:23.049Z,60.48
2019-02-17T03:17:50.967Z,50.63
2019-02-17T03:20:17.558Z,57.03
2019-02-17T03:22:44.250Z,57.80
2019-02-17T03:25:10.903Z,52.33
2019-02-17T03:27:37.440Z,55.52
2019-02-17T03:30:06.197Z,44.33
2019-02-17T03:32:32.985Z,51.23
2019-02-17T03:34:59.557Z,43.83
2019-02-17T03:37:26.112Z,62.70
2019-02-17T03:39:52.713Z,52.45
2019-02-17T03:42:19.241Z,51.90
2019-02-17T03:44:45.818Z,51.70
2019-02-17T03:47:12.368Z,59.83
2019-02-17T03:49:38.943Z,56.73
2019-02-17T03:52:05.522Z,54.03
2019-02-17T03:54:32.081Z,55.67
2019-02-17T03:56:58.623Z,56.77
2019-02-17T03:59:25.192Z,64.50
2019-02-17T04:01:51.731Z,56.95
2019-02-17T04:04:18.310Z,57.67
2019-02-17T04:06:44.954Z,77.67
2019-02-17T04:09:11.531Z,65.08
2019-02-17T04:11:38.081Z,63.13
2019-02-17T04:14:04.652Z,54.08
2019-02-17T04:16:31.212Z,45.03
2019-02-17T04:18:57.794Z,52.50
2019-02-17T04:21:24.349Z,52.45
2019-02-17T04:23:50.926Z,64.15
2019-02-17T04:26:17.471Z,59.45
2019-02-17T04:28:44.051Z,61.00
2019-02-17T04:31:10.641Z,63.52
2019-02-17T04:33:37.184Z,63.92
2019-02-17T04:36:03.780Z,50.85
2019-02-17T04:38:30.307Z,53.28
2019-02-17T04:40:56.868Z,54.48
2019-02-17T04:43:23.417Z,56.83
2019-02-17T04:45:49.991Z,62.78
2019-02-17T04:48:16.531Z,75.72
2019-02-17T04:50:43.103Z,66.57
2019-02-17T04:53:09.656Z,53.05
2019-02-17T04:55:36.230Z,50.80
2019-02-17T04:58:02.905Z,47.85
2019-02-17T05:00:39.497Z,47.90
2019-02-17T05:02:57.928Z,53.58
2019-02-17T05:05:24.521Z,57.83
2019-02-17T05:07:51.086Z,51.58
2019-02-17T05:10:17.649Z,56.75
2019-02-17T05:12:44.266Z,64.03
2019-02-17T05:15:10.844Z,59.67
2019-02-17T05:17:37.387Z,60.30
2019-02-17T05:20:04.195Z,55.70
2019-02-17T05:22:30.737Z,63.13
2019-02-17T05:24:57.308Z,55.45
2019-02-17T05:27:23.992Z,56.02
2019-02-17T05:29:50.530Z,47.67
2019-02-17T05:32:17.102Z,58.65
2019-02-17T05:34:43.647Z,65.12
2019-02-17T05:37:10.239Z,82.67
2019-02-17T05:39:36.785Z,57.10
2019-02-17T05:42:03.410Z,60.85
2019-02-17T05:44:29.989Z,63.25
2019-02-17T05:46:56.559Z,78.80
2019-02-17T05:49:23.106Z,62.38
2019-02-17T05:51:49.683Z,68.12
2019-02-17T05:54:16.227Z,75.03
2019-02-17T05:56:42.787Z,63.00
2019-02-17T05:59:09.343Z,58.30
2019-02-17T06:01:35.917Z,69.45
2019-02-17T06:04:02.511Z,75.40
2019-02-17T06:06:29.073Z,75.03
2019-02-17T06:08:55.636Z,86.20
2019-02-17T06:11:23.970Z,97.37
2019-02-17T06:13:50.517Z,99.22
2019-02-17T06:16:17.087Z,77.40
2019-02-17T06:18:43.644Z,80.53
2019-02-17T06:21:10.210Z,77.25
2019-02-17T06:23:36.775Z,75.78
2019-02-17T06:26:03.330Z,79.90
2019-02-17T06:28:29.891Z,89.67
2019-02-17T06:30:56.542Z,86.30
2019-02-17T06:33:23.147Z,97.82
2019-02-17T06:35:50.798Z,78.78
2019-02-17T06:38:17.379Z,71.67
2019-02-17T06:40:43.934Z,86.42
2019-02-17T06:43:10.505Z,72.05
2019-02-17T06:45:37.068Z,73.70
2019-02-17T06:48:03.650Z,97.20
2019-02-17T06:50:30.214Z,87.50
2019-02-17T06:52:56.780Z,78.75
2019-02-17T06:55:36.963Z,72.58
2019-02-17T06:58:03.526Z,77.03
2019-02-17T07:00:33.321Z,61.92
2019-02-17T07:02:59.896Z,62.00
2019-02-17T07:05:57.866Z,61.40
2019-02-17T07:08:24.449Z,53.63
2019-02-17T07:10:50.991Z,53.85
2019-02-17T07:13:17.569Z,55.80
2019-02-17T07:15:44.121Z,73.52
2019-02-17T07:18:10.721Z,69.15
2019-02-17T07:20:37.266Z,57.70
2019-02-17T07:23:03.832Z,50.30
2019-02-17T07:25:30.697Z,52.62
2019-02-17T07:27:57.351Z,51.85
2019-02-17T07:30:23.864Z,55.65
2019-02-17T07:32:50.441Z,55.50
2019-02-17T07:35:17.039Z,54.83
2019-02-17T07:37:43.586Z,51.55
2019-02-17T07:40:10.148Z,44.95
2019-02-17T07:42:36.726Z,45.75
2019-02-17T07:45:03.338Z,38.50
2019-02-17T07:47:29.907Z,42.20
2019-02-17T07:49:56.483Z,41.13
2019-02-17T07:52:23.033Z,38.92
2019-02-17T07:54:49.599Z,41.95
2019-02-17T07:57:16.138Z,40.40
2019-02-17T07:59:42.730Z,44.58
2019-02-17T08:02:09.279Z,39.05
2019-02-17T08:04:35.853Z,40.75
2019-02-17T08:07:02.407Z,39.67
2019-02-17T08:09:28.975Z,37.38
2019-02-17T08:11:55.522Z,35.75
2019-02-17T08:14:22.096Z,34.25
2019-02-17T08:16:48.640Z,39.20
2019-02-17T08:19:17.405Z,36.55
2019-02-17T08:21:43.945Z,35.00
2019-02-17T08:24:10.522Z,37.90
2019-02-17T08:26:37.311Z,29.95
2019-02-17T08:29:03.872Z,32.80
2019-02-17T08:31:30.421Z,29.63
2019-02-17T08:33:56.989Z,35.17
2019-02-17T08:36:23.577Z,31.62
2019-02-17T08:38:50.234Z,33.02
2019-02-17T08:41:16.788Z,31.57
2019-02-17T08:43:43.327Z,31.07
2019-02-17T08:46:09.918Z,31.23
2019-02-17T08:48:36.500Z,32.70
2019-02-17T08:51:03.070Z,27.22
2019-02-17T08:53:29.632Z,30.70
2019-02-17T08:55:56.177Z,29.55
2019-02-17T08:58:22.788Z,25.12
2019-02-17T09:00:49.303Z,30.27
2019-02-17T09:03:15.840Z,33.28
2019-02-17T09:05:44.371Z,30.50
2019-02-17T09:08:11.193Z,30.57
2019-02-17T09:10:37.790Z,30.62
2019-02-17T09:13:04.339Z,29.00
2019-02-17T09:15:30.920Z,30.88
2019-02-17T09:17:57.499Z,32.38
2019-02-17T09:20:24.474Z,28.92
2019-02-17T09:22:51.043Z,30.10
2019-02-17T09:25:17.621Z,28.47
2019-02-17T09:27:44.182Z,31.80
2019-02-17T09:30:12.689Z,30.02
2019-02-17T09:32:39.272Z,33.83
2019-02-17T09:35:06.153Z,30.05
2019-02-17T09:37:32.706Z,29.02
2019-02-17T09:39:59.268Z,30.12
2019-02-17T09:42:25.851Z,33.67
2019-02-17T09:44:52.439Z,31.37
2019-02-17T09:47:21.424Z,30.97
2019-02-17T09:49:48.008Z,30.23
2019-02-17T09:52:14.558Z,29.40
2019-02-17T09:54:41.156Z,31.60
2019-02-17T09:57:07.709Z,33.45
2019-02-17T09:59:34.268Z,30.08
2019-02-17T10:02:00.811Z,29.67
2019-02-17T10:04:27.361Z,30.20
2019-02-17T10:06:54.047Z,32.67
2019-02-17T10:09:20.603Z,33.80
2019-02-17T10:11:47.179Z,30.08
2019-02-17T10:14:13.740Z,31.07
2019-02-17T10:16:40.332Z,29.37
2019-02-17T10:19:06.942Z,31.15
2019-02-17T10:21:34.648Z,30.72
2019-02-17T10:24:01.234Z,32.03
2019-02-17T10:26:29.418Z,31.65
2019-02-17T10:28:55.979Z,29.48
2019-02-17T10:31:22.552Z,29.15
2019-02-17T10:33:49.086Z,28.75
2019-02-17T10:36:15.667Z,28.98
2019-02-17T10:38:42.548Z,33.98
2019-02-17T10:41:09.118Z,28.05
2019-02-17T10:43:35.653Z,30.17
2019-02-17T10:46:02.244Z,27.67
2019-02-17T10:48:28.807Z,26.57
2019-02-17T10:50:55.374Z,30.43
2019-02-17T10:53:21.937Z,33.42
2019-02-17T10:55:48.513Z,31.35
2019-02-17T10:58:15.058Z,29.55
2019-02-17T11:00:41.632Z,29.35
2019-02-17T11:03:08.767Z,30.45
2019-02-17T11:05:35.323Z,27.55
2019-02-17T11:08:01.895Z,29.75
2019-02-17T11:10:28.437Z,30.27
2019-02-17T11:12:54.998Z,29.37
2019-02-17T11:15:21.545Z,28.40
2019-02-17T11:17:48.111Z,31.00
2019-02-17T11:20:14.673Z,27.55
2019-02-17T11:22:41.239Z,29.55
2019-02-17T11:25:07.803Z,31.37
2019-02-17T11:27:34.382Z,28.85
2019-02-17T11:30:00.922Z,27.02
2019-02-17T11:32:27.489Z,31.12
2019-02-17T11:34:54.048Z,30.25
2019-02-17T11:37:20.613Z,25.95
2019-02-17T11:39:47.194Z,27.65
2019-02-17T11:42:13.736Z,27.48
2019-02-17T11:44:40.310Z,29.02
2019-02-17T11:47:07.506Z,26.23
2019-02-17T11:49:35.405Z,29.42
2019-02-17T11:52:01.973Z,28.47
2019-02-17T11:54:28.522Z,27.27
2019-02-17T11:56:55.098Z,26.00
2019-02-17T11:59:21.664Z,28.40
2019-02-17T12:01:48.242Z,30.85
2019-02-17T12:04:15.301Z,28.47
2019-02-17T12:06:41.870Z,28.90
2019-02-17T12:09:08.528Z,28.57
2019-02-17T12:11:35.435Z,27.62
2019-02-17T12:14:02.004Z,27.35
2019-02-17T12:16:36.774Z,28.57
2019-02-17T12:18:57.065Z,28.17
2019-02-17T12:21:58.308Z,31.15
2019-02-17T12:24:35.073Z,28.15
2019-02-17T12:27:27.097Z,27.42
2019-02-17T12:30:08.962Z,24.98
2019-02-17T12:32:35.529Z,28.30
2019-02-17T12:35:04.162Z,30.15
2019-02-17T12:37:30.700Z,29.15
2019-02-17T12:39:57.260Z,28.07
2019-02-17T12:42:23.824Z,26.37
2019-02-17T12:44:50.364Z,28.52
2019-02-17T12:47:19.259Z,25.77
2019-02-17T12:49:45.762Z,29.70
2019-02-17T12:52:12.332Z,28.95
2019-02-17T12:54:39.173Z,29.35
2019-02-17T12:57:05.734Z,31.30
2019-02-17T12:59:32.272Z,26.07
2019-02-17T13:01:58.811Z,25.35
2019-02-17T13:04:25.378Z,26.50
2019-02-17T13:06:51.926Z,27.60
2019-02-17T13:09:18.509Z,25.70
2019-02-17T13:11:45.048Z,25.35
2019-02-17T13:14:11.598Z,30.88
2019-02-17T13:16:38.671Z,26.50
2019-02-17T13:19:05.241Z,26.60
2019-02-17T13:21:31.798Z,29.20
2019-02-17T13:23:58.376Z,23.73
2019-02-17T13:26:24.919Z,26.30
2019-02-17T13:28:51.486Z,28.00
2019-02-17T13:31:18.020Z,26.17
2019-02-17T13:33:44.580Z,27.13
2019-02-17T13:36:11.130Z,27.17
2019-02-17T13:38:38.003Z,26.75
2019-02-17T13:41:04.529Z,28.05
2019-02-17T13:43:31.084Z,23.75
2019-02-17T13:45:59.927Z,30.48
2019-02-17T13:48:28.898Z,26.85
2019-02-17T13:50:55.460Z,23.20
2019-02-17T13:53:22.034Z,27.13
2019-02-17T13:55:48.573Z,26.48
2019-02-17T13:58:15.147Z,23.10
2019-02-17T14:00:41.708Z,25.12
2019-02-17T14:03:08.291Z,25.40
2019-02-17T14:05:34.815Z,23.20
2019-02-17T14:08:01.361Z,23.20
2019-02-17T14:10:27.928Z,23.30
2019-02-17T14:12:54.606Z,26.17
2019-02-17T14:15:21.129Z,23.75
2019-02-17T14:17:47.976Z,24.60
2019-02-17T14:20:14.634Z,23.22
2019-02-17T14:22:41.577Z,26.10
2019-02-17T14:25:08.158Z,24.80
2019-02-17T14:27:34.716Z,22.67
2019-02-17T14:30:01.291Z,25.32
2019-02-17T14:32:27.866Z,22.02
2019-02-17T14:34:54.432Z,22.62
2019-02-17T14:37:20.974Z,21.07
2019-02-17T14:39:47.540Z,25.20
2019-02-17T14:42:14.107Z,23.35
2019-02-17T14:44:40.686Z,23.10
2019-02-17T14:47:07.550Z,22.90
2019-02-17T14:49:34.123Z,23.42
2019-02-17T14:52:00.669Z,23.70
2019-02-17T14:54:27.237Z,22.50
2019-02-17T14:56:53.786Z,22.25
2019-02-17T14:59:20.374Z,20.65
2019-02-17T15:01:47.018Z,22.42
2019-02-17T15:04:13.602Z,23.38
2019-02-17T15:06:40.186Z,21.00
2019-02-17T15:09:06.772Z,24.95
2019-02-17T15:11:33.324Z,24.98
2019-02-17T15:13:59.889Z,25.27
2019-02-17T15:16:26.519Z,20.17
2019-02-17T15:18:53.094Z,24.45
2019-02-17T15:21:20.002Z,23.57
2019-02-17T15:23:46.580Z,21.73
2019-02-17T15:26:13.978Z,26.35
2019-02-17T15:28:40.516Z,23.73
2019-02-17T15:31:07.086Z,21.33
2019-02-17T15:33:33.624Z,22.10
2019-02-17T15:36:00.166Z,25.10
2019-02-17T15:38:26.724Z,26.48
2019-02-17T15:40:53.319Z,23.52
2019-02-17T15:43:19.859Z,26.77
2019-02-17T15:45:46.422Z,26.12
2019-02-17T15:48:12.962Z,21.90
2019-02-17T15:50:39.512Z,28.32
2019-02-17T15:53:06.037Z,24.87
2019-02-17T15:55:32.615Z,25.37
2019-02-17T15:57:59.183Z,28.20
2019-02-17T16:00:25.760Z,28.70
2019-02-17T16:02:52.303Z,28.30
2019-02-17T16:05:18.889Z,25.00
2019-02-17T16:07:45.435Z,29.85
2019-02-17T16:10:12.065Z,29.52
2019-02-17T16:12:38.594Z,27.13
2019-02-17T16:15:07.808Z,31.50
2019-02-17T16:17:34.688Z,27.05
2019-02-17T16:20:03.757Z,28.25
2019-02-17T16:22:30.335Z,28.55
2019-02-17T16:24:56.884Z,32.63
2019-02-17T16:27:23.438Z,28.55
2019-02-17T16:29:50.033Z,48.35
2019-02-17T16:32:16.586Z,32.30
2019-02-17T16:34:43.160Z,37.20
2019-02-17T16:37:09.720Z,35.52
2019-02-17T16:39:36.287Z,36.48
2019-02-17T16:42:02.877Z,38.35
2019-02-17T16:44:29.421Z,33.67
2019-02-17T16:46:55.996Z,30.00
2019-02-17T16:49:22.709Z,34.18
2019-02-17T16:51:49.254Z,31.75
2019-02-17T16:54:15.801Z,31.90
2019-02-17T16:56:42.378Z,29.55
2019-02-17T16:59:08.953Z,30.62
2019-02-17T17:01:35.505Z,31.12
2019-02-17T17:04:02.071Z,28.20
2019-02-17T17:06:28.653Z,35.15
2019-02-17T17:08:55.203Z,34.90
2019-02-17T17:11:21.774Z,31.65
2019-02-17T17:13:48.323Z,29.57
2019-02-17T17:16:14.889Z,31.68
2019-02-17T17:18:41.471Z,28.85
2019-02-17T17:21:08.129Z,28.30
2019-02-17T17:23:34.665Z,29.67
2019-02-17T17:26:01.254Z,25.92
2019-02-17T17:28:27.787Z,25.10
2019-02-17T17:30:54.376Z,28.55
2019-02-17T17:33:20.941Z,31.20
2019-02-17T17:35:47.541Z,29.55
2019-02-17T17:38:14.080Z,29.75
2019-02-17T17:40:40.696Z,25.17
2019-02-17T17:43:07.191Z,24.85
2019-02-17T17:45:34.362Z,28.32
2019-02-17T17:48:00.931Z,31.77
2019-02-17T17:50:27.477Z,26.33
2019-02-17T17:52:54.039Z,29.57
2019-02-17T17:55:20.608Z,28.40
2019-02-17T17:57:47.158Z,29.20
2019-02-17T18:00:16.148Z,28.32
2019-02-17T18:02:42.716Z,25.77
2019-02-17T18:05:09.787Z,26.02
2019-02-17T18:07:36.362Z,24.35
2019-02-17T18:10:03.236Z,28.15
2019-02-17T18:12:29.802Z,26.23
2019-02-17T18:14:56.352Z,25.17
2019-02-17T18:17:22.915Z,31.87
2019-02-17T18:19:49.497Z,32.63
2019-02-17T18:22:16.049Z,31.42
2019-02-17T18:24:42.693Z,31.27
2019-02-17T18:27:09.254Z,38.73
2019-02-17T18:29:36.045Z,26.80
2019-02-17T18:32:02.623Z,32.88
2019-02-17T18:34:29.171Z,28.80
2019-02-17T18:36:55.730Z,22.77
2019-02-17T18:39:22.648Z,28.52
2019-02-17T18:41:49.235Z,27.80
2019-02-17T18:44:15.777Z,24.02
2019-02-17T18:46:42.347Z,24.25
2019-02-17T18:49:08.896Z,23.50
2019-02-17T18:51:35.501Z,23.42
2019-02-17T18:54:02.079Z,26.30
2019-02-17T18:56:28.642Z,21.60
2019-02-17T18:58:55.224Z,26.02
2019-02-17T19:01:21.762Z,21.93
2019-02-17T19:03:48.323Z,28.27
2019-02-17T19:06:15.938Z,27.37
2019-02-17T19:08:42.476Z,27.50
2019-02-17T19:11:09.053Z,24.67
2019-02-17T19:13:35.591Z,23.90
2019-02-17T19:16:02.149Z,25.52
2019-02-17T19:18:28.746Z,28.87
2019-02-17T19:20:55.311Z,22.48
2019-02-17T19:23:21.846Z,25.97
2019-02-17T19:25:48.430Z,27.30
2019-02-17T19:28:14.981Z,24.85
2019-02-17T19:30:41.575Z,27.37
2019-02-17T19:33:08.143Z,24.65
2019-02-17T19:35:41.463Z,25.57
2019-02-17T19:38:03.127Z,22.98
2019-02-17T19:40:29.664Z,22.70
2019-02-17T19:42:56.250Z,27.80
2019-02-17T19:45:22.803Z,27.20
2019-02-17T19:47:49.362Z,26.45
2019-02-17T19:50:15.929Z,24.30
2019-02-17T19:52:42.528Z,26.12
2019-02-17T19:55:09.131Z,28.87
2019-02-17T19:57:35.691Z,27.90
2019-02-17T20:00:02.268Z,24.90
2019-02-17T20:02:53.735Z,27.48
2019-02-17T20:05:24.498Z,30.55
2019-02-17T20:10:19.116Z,23.77
2019-02-17T20:12:45.698Z,30.00
2019-02-17T20:15:12.224Z,26.12
2019-02-17T20:17:38.864Z,26.97
2019-02-17T20:20:05.418Z,26.80
2019-02-17T20:22:31.949Z,21.85
2019-02-17T20:24:58.531Z,22.75
2019-02-17T20:27:25.058Z,25.77
2019-02-17T20:29:51.630Z,25.35
2019-02-17T20:32:18.170Z,23.77
2019-02-17T20:34:44.719Z,26.15
2019-02-17T20:37:11.258Z,25.45
2019-02-17T20:39:37.813Z,25.95
2019-02-17T20:42:04.373Z,22.75
2019-02-17T20:44:30.932Z,25.80
2019-02-17T20:46:57.480Z,25.65
2019-02-17T20:49:24.052Z,28.35
2019-02-17T20:51:50.592Z,25.72
2019-02-17T20:54:17.161Z,24.43
2019-02-17T20:56:43.727Z,23.87
2019-02-17T20:59:10.279Z,22.80
2019-02-17T21:01:36.819Z,24.47
2019-02-17T21:04:03.393Z,22.98
2019-02-17T21:06:29.925Z,23.45
2019-02-17T21:08:56.642Z,22.67
2019-02-17T21:11:23.185Z,23.18
2019-02-17T21:13:49.745Z,23.83
2019-02-17T21:16:16.284Z,25.23
2019-02-17T21:18:42.853Z,23.92
2019-02-17T21:21:09.397Z,26.23
2019-02-17T21:23:35.965Z,28.70
2019-02-17T21:26:02.497Z,30.05
2019-02-17T21:28:29.095Z,38.40
2019-02-17T21:30:55.629Z,22.67
2019-02-17T21:33:22.188Z,25.40
2019-02-17T21:35:48.753Z,21.52
2019-02-17T21:38:15.323Z,23.83
2019-02-17T21:40:41.867Z,24.05
2019-02-17T21:43:08.399Z,23.62
2019-02-17T21:45:34.959Z,23.27
2019-02-17T21:48:01.500Z,23.25
2019-02-17T21:50:28.053Z,25.45
2019-02-17T21:52:54.585Z,22.07
2019-02-17T21:55:21.134Z,21.48
2019-02-17T21:57:47.671Z,24.80
2019-02-17T22:00:16.093Z,22.25
2019-02-17T22:02:42.656Z,24.50
2019-02-17T22:05:11.278Z,22.35
2019-02-17T22:07:37.816Z,27.25
2019-02-17T22:10:05.098Z,23.83
2019-02-17T22:12:31.640Z,25.05
2019-02-17T22:14:58.219Z,25.52
2019-02-17T22:17:24.767Z,24.63
2019-02-17T22:19:51.329Z,27.02
2019-02-17T22:22:18.097Z,27.58
2019-02-17T22:24:44.663Z,28.77
2019-02-17T22:27:11.193Z,26.52
2019-02-17T22:29:37.755Z,25.50
2019-02-17T22:32:04.297Z,27.15
2019-02-17T22:34:30.865Z,23.35
2019-02-17T22:36:57.500Z,28.90
2019-02-17T22:39:24.070Z,27.15
2019-02-17T22:41:50.612Z,28.80
2019-02-17T22:44:17.174Z,25.05
2019-02-17T22:46:43.744Z,23.95
2019-02-17T22:49:10.306Z,26.35
2019-02-17T22:51:36.856Z,28.27
2019-02-17T22:54:03.410Z,24.72
2019-02-17T22:56:29.963Z,25.48
2019-02-17T22:58:56.529Z,27.65
2019-02-17T23:01:25.457Z,28.32
2019-02-17T23:03:52.006Z,26.23
2019-02-17T23:06:18.582Z,26.77
2019-02-17T23:08:45.138Z,24.87
2019-02-17T23:11:11.704Z,26.12
2019-02-17T23:13:38.250Z,20.52
2019-02-17T23:16:04.815Z,23.07
2019-02-17T23:18:31.360Z,26.00
2019-02-17T23:20:57.948Z,25.00
2019-02-17T23:23:24.495Z,28.73
2019-02-17T23:25:51.042Z,23.75
2019-02-17T23:28:17.630Z,26.40
2019-02-17T23:30:44.198Z,23.87
2019-02-17T23:33:10.754Z,22.20
2019-02-17T23:35:37.339Z,28.25
2019-02-17T23:38:03.884Z,21.40
2019-02-17T23:40:30.456Z,25.65
2019-02-17T23:42:59.059Z,23.00
2019-02-17T23:45:25.631Z,19.12
2019-02-17T23:47:52.172Z,21.97
2019-02-17T23:50:18.737Z,20.75
2019-02-17T23:52:45.286Z,18.67
2019-02-17T23:55:11.858Z,21.45
2019-02-17T23:57:38.410Z,25.00
